createdAt,value
2023-03-06T00:00:56.616Z,101148.94
2023-03-06T00:03:24.430Z,101150.94
2023-03-06T00:05:59.146Z,101128.38
2023-03-06T00:08:28.497Z,101137.91
2023-03-06T00:10:58.852Z,101123.69
2023-03-06T00:13:30.075Z,101140.78
2023-03-06T00:16:00.601Z,101129.66
2023-03-06T00:18:30.693Z,101133.06
2023-03-06T00:20:58.068Z,101119.47
2023-03-06T00:23:25.155Z,101106.66
2023-03-06T00:25:52.293Z,101112.47
2023-03-06T00:28:20.281Z,101102.94
2023-03-06T00:30:49.507Z,101107.22
2023-03-06T00:33:16.781Z,101080.72
2023-03-06T00:35:43.826Z,101073.00
2023-03-06T00:38:13.764Z,101091.22
2023-03-06T00:40:40.657Z,101091.16
2023-03-06T00:43:07.819Z,101091.94
2023-03-06T00:45:35.453Z,101087.41
2023-03-06T00:48:02.773Z,101064.94
2023-03-06T00:50:29.350Z,101073.38
2023-03-06T00:52:57.868Z,101078.50
2023-03-06T00:55:24.732Z,101075.06
2023-03-06T00:57:54.463Z,101078.50
2023-03-06T01:00:21.466Z,101077.75
2023-03-06T01:02:48.889Z,101070.25
2023-03-06T01:05:15.980Z,101073.88
2023-03-06T01:07:43.373Z,101080.00
2023-03-06T01:10:12.142Z,101079.81
2023-03-06T01:12:38.974Z,101084.38
2023-03-06T01:15:07.305Z,101055.16
2023-03-06T01:17:34.265Z,101072.09
2023-03-06T01:20:01.269Z,101071.22
2023-03-06T01:22:28.040Z,101058.63
2023-03-06T01:24:54.964Z,101060.88
2023-03-06T01:27:24.984Z,101064.31
2023-03-06T01:29:51.852Z,101053.75
2023-03-06T01:32:18.679Z,101058.13
2023-03-06T01:34:45.792Z,101053.66
2023-03-06T01:37:14.321Z,101042.56
2023-03-06T01:39:44.701Z,101032.97
2023-03-06T01:42:12.160Z,101041.72
2023-03-06T01:45:00.570Z,101043.47
2023-03-06T01:47:27.972Z,101029.00
2023-03-06T01:49:56.506Z,101040.00
2023-03-06T01:52:28.778Z,101032.09
2023-03-06T01:55:04.189Z,101031.84
2023-03-06T01:57:35.729Z,101011.91
2023-03-06T02:00:08.815Z,101033.31
2023-03-06T02:02:36.578Z,101025.38
2023-03-06T02:05:05.490Z,101014.19
2023-03-06T02:07:33.218Z,101013.19
2023-03-06T02:10:00.393Z,101012.94
2023-03-06T02:12:27.850Z,101011.88
2023-03-06T02:14:54.795Z,100987.41
2023-03-06T02:17:23.594Z,100991.66
2023-03-06T02:20:38.838Z,100995.97
2023-03-06T02:23:32.016Z,101008.53
2023-03-06T02:26:02.837Z,100977.59
2023-03-06T02:28:30.904Z,101000.56
2023-03-06T02:30:57.965Z,100998.69
2023-03-06T02:33:30.044Z,101004.38
2023-03-06T02:35:59.835Z,100981.03
2023-03-06T02:38:35.517Z,100979.00
2023-03-06T02:41:08.281Z,100976.13
2023-03-06T02:43:38.658Z,100976.03
2023-03-06T02:46:06.146Z,100952.97
2023-03-06T02:48:34.712Z,100957.72
2023-03-06T02:51:01.840Z,100959.59
2023-03-06T02:53:31.716Z,100972.25
2023-03-06T02:55:58.775Z,100938.69
2023-03-06T02:58:26.739Z,100956.00
2023-03-06T03:00:55.333Z,100947.88
2023-03-06T03:03:22.647Z,100953.97
2023-03-06T03:05:49.519Z,100945.31
2023-03-06T03:08:16.164Z,100928.91
2023-03-06T03:10:48.826Z,100935.75
2023-03-06T03:13:15.779Z,100920.31
2023-03-06T03:15:43.777Z,100922.03
2023-03-06T03:18:14.386Z,100929.81
2023-03-06T03:20:43.773Z,100931.53
2023-03-06T03:23:10.730Z,100927.22
2023-03-06T03:25:37.909Z,100921.28
2023-03-06T03:28:04.829Z,100916.84
2023-03-06T03:30:31.656Z,100914.97
2023-03-06T03:32:58.582Z,100914.16
2023-03-06T03:35:25.943Z,100897.72
2023-03-06T03:37:54.703Z,100894.19
2023-03-06T03:40:22.144Z,100886.50
2023-03-06T03:42:48.834Z,100901.28
2023-03-06T03:45:19.026Z,100899.53
2023-03-06T03:47:45.941Z,100892.78
2023-03-06T03:50:16.470Z,100907.38
2023-03-06T03:52:43.748Z,100901.34
2023-03-06T03:55:10.803Z,100892.78
2023-03-06T03:57:39.741Z,100904.13
2023-03-06T04:00:08.931Z,100913.84
2023-03-06T04:02:37.602Z,100910.31
2023-03-06T04:05:05.618Z,100914.66
2023-03-06T04:07:32.536Z,100907.75
2023-03-06T04:09:59.543Z,100896.31
2023-03-06T04:12:26.396Z,100899.78
2023-03-06T04:14:53.289Z,100886.28
2023-03-06T04:17:20.235Z,100901.28
2023-03-06T04:19:48.737Z,100896.97
2023-03-06T04:22:20.304Z,100890.00
2023-03-06T04:24:50.235Z,100888.31
2023-03-06T04:27:17.058Z,100882.38
2023-03-06T04:29:44.749Z,100897.00
2023-03-06T04:32:11.544Z,100880.94
2023-03-06T04:34:38.823Z,100889.28
2023-03-06T04:37:06.024Z,100895.94
2023-03-06T04:39:32.857Z,100881.19
2023-03-06T04:41:59.645Z,100898.66
2023-03-06T04:44:27.724Z,100892.75
2023-03-06T04:46:54.443Z,100868.81
2023-03-06T04:49:21.183Z,100873.41
2023-03-06T04:51:47.996Z,100881.09
2023-03-06T04:54:14.902Z,100877.78
2023-03-06T04:56:42.010Z,100868.53
2023-03-06T04:59:10.601Z,100866.78
2023-03-06T05:01:37.535Z,100882.53
2023-03-06T05:04:04.690Z,100883.53
2023-03-06T05:06:31.436Z,100880.19
2023-03-06T05:08:58.396Z,100876.66
2023-03-06T05:11:25.218Z,100883.75
2023-03-06T05:13:55.019Z,100886.28
2023-03-06T05:16:23.308Z,100884.75
2023-03-06T05:18:50.809Z,100883.19
2023-03-06T05:21:19.158Z,100878.78
2023-03-06T05:23:46.016Z,100875.47
2023-03-06T05:26:14.618Z,100890.38
2023-03-06T05:28:42.901Z,100869.69
2023-03-06T05:31:09.833Z,100868.94
2023-03-06T05:33:37.196Z,100881.50
2023-03-06T05:36:04.612Z,100877.94
2023-03-06T05:38:32.424Z,100872.88
2023-03-06T05:40:59.278Z,100852.94
2023-03-06T05:43:26.449Z,100887.38
2023-03-06T05:46:04.452Z,100876.16
2023-03-06T05:48:32.363Z,100883.09
2023-03-06T05:51:03.008Z,100873.22
2023-03-06T05:53:32.918Z,100874.84
2023-03-06T05:56:02.400Z,100872.44
2023-03-06T05:58:32.826Z,100882.69
2023-03-06T06:00:59.776Z,100878.22
2023-03-06T06:03:27.945Z,100895.63
2023-03-06T06:05:58.731Z,100882.47
2023-03-06T06:08:26.154Z,100892.00
2023-03-06T06:10:53.599Z,100892.00
2023-03-06T06:13:20.542Z,100893.00
2023-03-06T06:15:47.452Z,100880.72
2023-03-06T06:18:14.366Z,100884.25
2023-03-06T06:20:41.633Z,100885.03
2023-03-06T06:23:11.552Z,100875.06
2023-03-06T06:25:38.791Z,100886.59
2023-03-06T06:28:07.427Z,100867.63
2023-03-06T06:30:35.921Z,100881.22
2023-03-06T06:33:02.915Z,100892.38
2023-03-06T06:35:29.730Z,100875.97
2023-03-06T06:37:56.858Z,100881.31
2023-03-06T06:40:24.757Z,100878.69
2023-03-06T06:42:53.124Z,100892.44
2023-03-06T06:45:20.171Z,100887.56
2023-03-06T06:47:50.202Z,100883.28
2023-03-06T06:50:17.170Z,100873.06
2023-03-06T06:52:43.914Z,100894.59
2023-03-06T06:55:11.951Z,100884.25
2023-03-06T06:57:40.113Z,100898.56
2023-03-06T07:00:07.868Z,100905.38
2023-03-06T07:02:34.866Z,100887.56
2023-03-06T07:05:05.340Z,100890.00
2023-03-06T07:07:39.406Z,100901.66
2023-03-06T07:10:13.112Z,100903.09
2023-03-06T07:12:40.097Z,100892.25
2023-03-06T07:15:08.121Z,100907.28
2023-03-06T07:17:35.624Z,100904.00
2023-03-06T07:20:02.482Z,100910.22
2023-03-06T07:22:35.818Z,100900.00
2023-03-06T07:25:12.944Z,100900.69
2023-03-06T07:27:42.104Z,100907.38
2023-03-06T07:30:12.480Z,100903.16
2023-03-06T07:32:39.619Z,100895.31
2023-03-06T07:35:19.842Z,100911.59
2023-03-06T07:37:47.385Z,100908.66
2023-03-06T07:40:14.360Z,100898.19
2023-03-06T07:42:43.454Z,100906.69
2023-03-06T07:45:15.037Z,100909.41
2023-03-06T07:47:43.045Z,100901.72
2023-03-06T07:50:10.319Z,100921.38
2023-03-06T07:52:48.012Z,100897.97
2023-03-06T07:55:14.962Z,100903.22
2023-03-06T07:57:42.282Z,100903.00
2023-03-06T08:00:14.904Z,100907.38
2023-03-06T08:02:43.182Z,100909.25
2023-03-06T08:05:14.639Z,100910.16
2023-03-06T08:07:45.299Z,100907.81
2023-03-06T08:10:16.803Z,100902.53
2023-03-06T08:12:46.762Z,100904.72
2023-03-06T08:15:13.929Z,100905.63
2023-03-06T08:17:41.027Z,100876.13
2023-03-06T08:20:10.591Z,100886.50
2023-03-06T08:22:38.042Z,100903.56
2023-03-06T08:25:05.564Z,100913.03
2023-03-06T08:27:35.175Z,100908.25
2023-03-06T08:30:02.724Z,100897.13
2023-03-06T08:32:30.526Z,100905.78
2023-03-06T08:34:59.931Z,100904.66
2023-03-06T08:37:26.979Z,100900.22
2023-03-06T08:39:54.173Z,100894.00
2023-03-06T08:42:21.122Z,100903.13
2023-03-06T08:44:48.131Z,100907.28
2023-03-06T08:47:15.690Z,100908.06
2023-03-06T08:49:42.967Z,100900.78
2023-03-06T08:52:09.925Z,100892.13
2023-03-06T08:54:37.793Z,100900.84
2023-03-06T08:57:07.273Z,100899.03
2023-03-06T08:59:34.225Z,100897.38
2023-03-06T09:02:02.123Z,100905.13
2023-03-06T09:04:31.478Z,100898.63
2023-03-06T09:07:00.527Z,100896.84
2023-03-06T09:09:28.576Z,100901.97
2023-03-06T09:11:55.448Z,100893.66
2023-03-06T09:14:22.342Z,100885.69
2023-03-06T09:16:53.503Z,100894.13
2023-03-06T09:19:20.352Z,100884.09
2023-03-06T09:21:48.630Z,100875.25
2023-03-06T09:24:15.417Z,100870.25
2023-03-06T09:26:46.488Z,100875.16
2023-03-06T09:29:17.125Z,100878.41
2023-03-06T09:34:27.726Z,100896.97
2023-03-06T09:36:57.140Z,100880.22
2023-03-06T09:39:25.894Z,100889.25
2023-03-06T09:41:53.548Z,100891.94
2023-03-06T09:44:23.962Z,100894.31
2023-03-06T09:47:08.991Z,100890.53
2023-03-06T09:50:23.957Z,100892.44
2023-03-06T09:53:20.972Z,100900.72
2023-03-06T09:55:59.414Z,100894.75
2023-03-06T09:58:30.309Z,100900.66
2023-03-06T10:01:30.414Z,100904.63
2023-03-06T10:04:10.515Z,100893.22
2023-03-06T10:06:47.523Z,100893.72
2023-03-06T10:09:37.987Z,100890.31
2023-03-06T10:12:13.196Z,100877.56
2023-03-06T10:14:47.770Z,100890.25
2023-03-06T10:17:25.130Z,100887.38
2023-03-06T10:19:54.465Z,100877.16
2023-03-06T10:22:32.145Z,100871.44
2023-03-06T10:25:51.421Z,100866.66
2023-03-06T10:28:24.738Z,100859.25
2023-03-06T10:31:14.887Z,100838.47
2023-03-06T10:34:01.441Z,100869.03
2023-03-06T10:36:29.024Z,100857.13
2023-03-06T10:38:59.325Z,100853.22
2023-03-06T10:41:31.911Z,100869.88
2023-03-06T10:44:01.722Z,100869.09
2023-03-06T10:46:34.953Z,100868.44
2023-03-06T10:49:05.037Z,100862.91
2023-03-06T10:51:33.267Z,100847.41
2023-03-06T10:54:04.246Z,100853.88
2023-03-06T10:56:38.751Z,100853.66
2023-03-06T10:59:18.289Z,100841.81
2023-03-06T11:01:48.430Z,100848.19
2023-03-06T11:04:31.119Z,100851.41
2023-03-06T11:07:17.323Z,100849.56
2023-03-06T11:10:06.022Z,100848.56
2023-03-06T11:12:43.966Z,100834.63
2023-03-06T11:15:14.372Z,100838.41
2023-03-06T11:18:08.918Z,100830.53
2023-03-06T11:20:52.607Z,100829.25
2023-03-06T11:23:39.326Z,100817.81
2023-03-06T11:26:20.263Z,100823.41
2023-03-06T11:29:15.771Z,100809.75
2023-03-06T11:31:57.085Z,100825.72
2023-03-06T11:34:31.755Z,100815.81
2023-03-06T11:37:08.184Z,100810.19
2023-03-06T11:39:53.833Z,100801.13
2023-03-06T11:42:27.310Z,100802.63
2023-03-06T11:45:40.117Z,100804.88
2023-03-06T11:48:18.539Z,100792.41
2023-03-06T11:50:50.427Z,100794.09
2023-03-06T11:53:20.553Z,100792.16
2023-03-06T11:56:09.978Z,100783.19
2023-03-06T11:58:40.577Z,100779.28
2023-03-06T12:01:44.314Z,100790.34
2023-03-06T12:04:30.220Z,100759.50
2023-03-06T12:07:33.198Z,100776.63
2023-03-06T12:10:19.141Z,100767.47
2023-03-06T12:13:28.008Z,100783.03
2023-03-06T12:16:16.531Z,100780.16
2023-03-06T12:19:23.895Z,100776.16
2023-03-06T12:22:24.003Z,100766.69
2023-03-06T12:25:17.418Z,100766.84
2023-03-06T12:27:56.745Z,100750.13
2023-03-06T12:30:36.926Z,100759.88
2023-03-06T12:33:22.573Z,100760.09
2023-03-06T12:36:06.336Z,100755.75
2023-03-06T12:38:55.003Z,100754.31
2023-03-06T12:41:55.799Z,100750.81
2023-03-06T12:44:28.887Z,100747.88
2023-03-06T12:47:04.843Z,100745.09
2023-03-06T12:49:39.263Z,100740.53
2023-03-06T12:52:18.733Z,100717.31
2023-03-06T12:54:48.758Z,100739.22
2023-03-06T12:57:18.161Z,100726.63
2023-03-06T12:59:51.329Z,100706.06
2023-03-06T13:02:34.246Z,100693.84
2023-03-06T13:05:33.650Z,100717.81
2023-03-06T13:08:16.189Z,100678.91
2023-03-06T13:11:06.867Z,100680.50
2023-03-06T13:13:48.430Z,100689.53
2023-03-06T13:16:33.544Z,100687.69
2023-03-06T13:19:22.124Z,100676.53
2023-03-06T13:21:55.181Z,100673.91
2023-03-06T13:24:24.371Z,100656.50
2023-03-06T13:26:55.710Z,100677.75
2023-03-06T13:29:37.755Z,100669.66
2023-03-06T13:32:04.906Z,100668.03
2023-03-06T13:34:31.930Z,100669.28
2023-03-06T13:37:17.215Z,100660.13
2023-03-06T13:39:56.992Z,100657.06
2023-03-06T13:42:37.576Z,100650.09
2023-03-06T13:45:23.559Z,100652.13
2023-03-06T13:48:30.252Z,100646.78
2023-03-06T13:50:49.109Z,100647.19
2023-03-06T13:54:15.199Z,100646.25
2023-03-06T13:57:33.401Z,100638.13
2023-03-06T14:00:30.766Z,100638.56
2023-03-06T14:03:09.586Z,100626.94
2023-03-06T14:05:48.838Z,100626.94
2023-03-06T14:08:19.428Z,100609.25
2023-03-06T14:10:52.312Z,100618.50
2023-03-06T14:13:32.336Z,100620.97
2023-03-06T14:16:17.697Z,100612.06
2023-03-06T14:18:49.527Z,100599.41
2023-03-06T14:22:25.378Z,100579.69
2023-03-06T14:25:00.158Z,100574.34
2023-03-06T14:27:45.281Z,100572.66
2023-03-06T14:30:15.677Z,100592.88
2023-03-06T14:32:45.193Z,100567.91
2023-03-06T14:35:30.534Z,100583.84
2023-03-06T14:38:01.171Z,100573.06
2023-03-06T14:40:33.368Z,100564.88
2023-03-06T14:43:27.054Z,100596.31
2023-03-06T14:46:02.660Z,100592.09
2023-03-06T14:48:45.514Z,100598.34
2023-03-06T14:51:17.770Z,100602.81
2023-03-06T14:53:46.578Z,100590.75
2023-03-06T14:56:21.906Z,100588.19
2023-03-06T14:58:57.724Z,100578.88
2023-03-06T15:01:30.519Z,100588.97
2023-03-06T15:04:01.326Z,100589.34
2023-03-06T15:06:50.601Z,100580.81
2023-03-06T15:09:36.839Z,100572.38
2023-03-06T15:12:29.927Z,100588.75
2023-03-06T15:15:02.731Z,100580.56
2023-03-06T15:17:40.707Z,100572.19
2023-03-06T15:20:41.786Z,100563.78
2023-03-06T15:23:26.512Z,100553.84
2023-03-06T15:25:59.404Z,100564.81
2023-03-06T15:28:39.750Z,100550.84
2023-03-06T15:31:25.438Z,100547.00
2023-03-06T15:34:15.093Z,100544.94
2023-03-06T15:37:07.139Z,100540.31
2023-03-06T15:39:43.845Z,100537.69
2023-03-06T15:42:14.124Z,100533.19
2023-03-06T15:44:44.089Z,100519.44
2023-03-06T15:47:14.011Z,100515.19
2023-03-06T15:49:41.452Z,100510.00
2023-03-06T15:52:12.476Z,100517.97
2023-03-06T15:54:39.522Z,100512.56
2023-03-06T15:57:13.420Z,100520.00
2023-03-06T15:59:45.093Z,100510.41
2023-03-06T16:02:21.766Z,100502.84
2023-03-06T16:04:49.864Z,100503.69
2023-03-06T16:07:20.779Z,100500.50
2023-03-06T16:09:47.568Z,100495.09
2023-03-06T16:12:20.425Z,100482.47
2023-03-06T16:14:48.911Z,100477.53
2023-03-06T16:17:17.009Z,100478.84
2023-03-06T16:19:44.075Z,100472.75
2023-03-06T16:22:12.718Z,100471.91
2023-03-06T16:24:39.772Z,100472.97
2023-03-06T16:27:09.274Z,100470.34
2023-03-06T16:29:37.132Z,100457.31
2023-03-06T16:32:06.281Z,100453.84
2023-03-06T16:34:33.360Z,100444.69
2023-03-06T16:37:00.477Z,100448.38
2023-03-06T16:39:27.452Z,100446.91
2023-03-06T16:41:55.607Z,100445.63
2023-03-06T16:44:25.527Z,100442.16
2023-03-06T16:46:52.533Z,100426.63
2023-03-06T16:49:25.859Z,100430.88
2023-03-06T16:51:53.427Z,100415.97
2023-03-06T16:54:24.601Z,100395.28
2023-03-06T16:56:51.649Z,100403.88
2023-03-06T16:59:18.688Z,100400.31
2023-03-06T17:01:45.657Z,100407.34
2023-03-06T17:04:13.120Z,100407.13
2023-03-06T17:06:42.103Z,100406.63
2023-03-06T17:09:11.633Z,100399.47
2023-03-06T17:11:39.883Z,100404.56
2023-03-06T17:14:07.130Z,100384.81
2023-03-06T17:16:34.650Z,100403.78
2023-03-06T17:19:03.080Z,100384.03
2023-03-06T17:21:30.771Z,100398.91
2023-03-06T17:23:57.762Z,100393.03
2023-03-06T17:26:24.869Z,100394.31
2023-03-06T17:28:52.118Z,100378.25
2023-03-06T17:31:22.043Z,100391.91
2023-03-06T17:33:50.158Z,100385.97
2023-03-06T17:36:19.638Z,100361.09
2023-03-06T17:38:46.838Z,100376.63
2023-03-06T17:41:14.606Z,100373.41
2023-03-06T17:43:42.187Z,100372.56
2023-03-06T17:46:12.371Z,100369.50
2023-03-06T17:48:41.324Z,100367.94
2023-03-06T17:51:09.623Z,100367.94
2023-03-06T17:53:39.095Z,100365.13
2023-03-06T17:56:13.003Z,100354.06
2023-03-06T17:58:40.091Z,100355.34
2023-03-06T18:01:19.173Z,100367.38
2023-03-06T18:03:48.180Z,100359.59
2023-03-06T18:06:16.241Z,100359.66
2023-03-06T18:08:45.897Z,100352.16
2023-03-06T18:11:13.636Z,100364.06
2023-03-06T18:13:42.923Z,100340.25
2023-03-06T18:16:14.514Z,100349.91
2023-03-06T18:18:41.723Z,100342.47
2023-03-06T18:21:14.026Z,100335.53
2023-03-06T18:23:43.954Z,100342.47
2023-03-06T18:26:15.676Z,100349.31
2023-03-06T18:28:45.498Z,100344.16
2023-03-06T18:31:24.673Z,100333.97
2023-03-06T18:33:53.304Z,100333.31
2023-03-06T18:36:21.017Z,100328.00
2023-03-06T18:38:48.120Z,100322.13
2023-03-06T18:41:14.877Z,100310.31
2023-03-06T18:43:41.829Z,100316.97
2023-03-06T18:46:10.748Z,100300.75
2023-03-06T18:48:38.059Z,100317.75
2023-03-06T18:51:11.974Z,100294.16
2023-03-06T18:53:40.178Z,100306.63
2023-03-06T18:56:09.277Z,100281.19
2023-03-06T18:58:36.802Z,100266.53
2023-03-06T19:01:07.886Z,100288.50
2023-03-06T19:03:36.016Z,100291.06
2023-03-06T19:06:11.812Z,100277.03
2023-03-06T19:08:40.239Z,100282.50
2023-03-06T19:11:15.975Z,100272.00
2023-03-06T19:13:45.979Z,100267.69
2023-03-06T19:16:18.769Z,100262.53
2023-03-06T19:18:45.727Z,100252.91
2023-03-06T19:21:18.815Z,100252.25
2023-03-06T19:23:45.707Z,100246.66
2023-03-06T19:26:20.862Z,100239.72
2023-03-06T19:28:48.354Z,100235.13
2023-03-06T19:31:27.048Z,100228.19
2023-03-06T19:33:55.907Z,100226.34
2023-03-06T19:36:27.631Z,100212.25
2023-03-06T19:38:58.876Z,100203.63
2023-03-06T19:41:26.963Z,100203.47
2023-03-06T19:43:58.544Z,100191.38
2023-03-06T19:46:26.486Z,100202.25
2023-03-06T19:49:01.316Z,100189.16
2023-03-06T19:51:30.035Z,100174.44
2023-03-06T19:53:57.838Z,100186.09
2023-03-06T19:56:27.000Z,100177.22
2023-03-06T19:58:53.966Z,100170.16
2023-03-06T20:01:23.044Z,100168.31
2023-03-06T20:03:51.085Z,100142.69
2023-03-06T20:06:20.352Z,100147.50
2023-03-06T20:08:47.644Z,100140.78
2023-03-06T20:11:22.759Z,100132.16
2023-03-06T20:13:50.375Z,100147.19
2023-03-06T20:16:18.913Z,100136.41
2023-03-06T20:18:48.512Z,100135.47
2023-03-06T20:21:16.156Z,100104.88
2023-03-06T20:23:43.329Z,100130.22
2023-03-06T20:26:13.103Z,100112.50
2023-03-06T20:28:41.837Z,100105.47
2023-03-06T20:31:11.715Z,100092.28
2023-03-06T20:33:40.373Z,100064.63
2023-03-06T20:36:14.447Z,100084.00
2023-03-06T20:38:42.024Z,100067.94
2023-03-06T20:41:28.710Z,100072.78
2023-03-06T20:43:55.851Z,100074.97
2023-03-06T20:46:23.481Z,100066.84
2023-03-06T20:48:53.021Z,100065.84
2023-03-06T20:51:23.976Z,100075.25
2023-03-06T20:53:56.932Z,100074.31
2023-03-06T20:56:27.296Z,100072.78
2023-03-06T20:58:54.595Z,100070.56
2023-03-06T21:01:26.659Z,100099.28
2023-03-06T21:03:58.485Z,100043.25
2023-03-06T21:06:35.222Z,100065.09
2023-03-06T21:09:03.869Z,100097.72
2023-03-06T21:11:43.370Z,100100.59
2023-03-06T21:14:12.489Z,100044.03
2023-03-06T21:16:40.084Z,100038.56
2023-03-06T21:19:11.507Z,100063.38
2023-03-06T21:21:40.985Z,100048.91
2023-03-06T21:24:22.563Z,100036.25
2023-03-06T21:26:55.335Z,100067.69
2023-03-06T21:29:24.604Z,100039.88
2023-03-06T21:31:58.561Z,100089.13
2023-03-06T21:34:30.937Z,100030.31
2023-03-06T21:37:03.856Z,100053.97
2023-03-06T21:39:36.289Z,100017.97
2023-03-06T21:42:39.962Z,100039.34
2023-03-06T21:45:12.536Z,100034.03
2023-03-06T21:47:42.590Z,100027.78
2023-03-06T21:50:11.385Z,100034.78
2023-03-06T21:52:41.645Z,100005.63
2023-03-06T21:55:11.117Z,100005.34
2023-03-06T21:57:38.071Z,100023.28
2023-03-06T22:00:08.776Z,100013.59
2023-03-06T22:02:40.920Z,100068.59
2023-03-06T22:05:10.886Z,100024.84
2023-03-06T22:07:41.043Z,100007.56
2023-03-06T22:10:15.566Z,100030.22
2023-03-06T22:12:42.861Z,100055.63
2023-03-06T22:15:13.085Z,100036.41
2023-03-06T22:17:41.617Z,99999.88
2023-03-06T22:20:15.380Z,100041.50
2023-03-06T22:22:46.271Z,100007.25
2023-03-06T22:25:19.237Z,100009.19
2023-03-06T22:27:49.660Z,99990.22
2023-03-06T22:30:18.003Z,99984.63
2023-03-06T22:32:45.438Z,100017.28
2023-03-06T22:35:18.665Z,99973.06
2023-03-06T22:37:45.818Z,99969.34
2023-03-06T22:40:15.313Z,100038.56
2023-03-06T22:42:48.463Z,99969.72
2023-03-06T22:45:15.475Z,99991.84
2023-03-06T22:47:42.638Z,99971.81
2023-03-06T22:50:10.337Z,100027.63
2023-03-06T22:52:40.092Z,99971.25
2023-03-06T22:55:10.765Z,99966.16
2023-03-06T22:57:48.713Z,99977.66
2023-03-06T23:00:20.463Z,99994.22
2023-03-06T23:02:47.686Z,99997.84
2023-03-06T23:05:14.583Z,100021.28
2023-03-06T23:07:45.672Z,99978.53
2023-03-06T23:10:21.806Z,99976.41
2023-03-06T23:12:56.322Z,99990.56
2023-03-06T23:15:23.574Z,99975.06
2023-03-06T23:17:57.830Z,99986.59
2023-03-06T23:20:32.982Z,99988.91
2023-03-06T23:23:00.393Z,99969.19
2023-03-06T23:25:29.358Z,99970.72
2023-03-06T23:27:59.371Z,99978.13
2023-03-06T23:30:28.338Z,99980.00
2023-03-06T23:32:57.610Z,100018.84
2023-03-06T23:35:29.235Z,99953.44
2023-03-06T23:37:58.793Z,100002.44
2023-03-06T23:40:30.880Z,99956.16
2023-03-06T23:43:00.668Z,99955.31
2023-03-06T23:45:27.635Z,99988.72
2023-03-06T23:48:06.309Z,99955.47
2023-03-06T23:50:38.873Z,99967.56
2023-03-06T23:53:05.736Z,99984.50
2023-03-06T23:55:34.823Z,99944.31
2023-03-06T23:58:09.218Z,99972.06
